map of KDAW home
KDAW - Airport
Location
City:  Rochester, New Hampshire, United States
Name:Skyhaven Airport
ICAO:KDAW
FAA LID:DAW

Details
Type:Airport (Airfield)
Use:Public/Civil
Latitude:4317'03"N (43.284235)
Longitude:7055'46"W (-70.929549)
Datum:WGS 1984
Elevation:322 ft (98 m)
Variation:14.76W (WMM2015v2 magnetic declination)
0.09 annual change
Runways:1
Longest:4201 × 75 ft (1280 × 23 m), paved

Time
Time Zone:UTC-5 (DST-4)
Local Time:

Weather
METAR:KDAW 041351Z AUTO 00000KT 10SM OVC075 02/M01 A3000 RMK AO2 SLP159 T00171011

Related Locations
Nearby:
Farthest:YAUG: 11733 mi / 18883 km
Augusta [Augusta Airport], WA, AU

Find:

   beyond  
but within

Other Information
Maps:
NOTAMs:
Links:
Sources:

  
  • flag of United States
  • flag of New Hampshire
  

Sectional Chart

Flight Planning
at skyvector.com

Satellite Image

Google Maps Satellite view

 

Copyright © 2004-2019 Karl L. Swartz. All rights reserved.
The Great Circle Mapper name and logo are trademarks of the Great Circle Mapper.
All other trademarks mentioned herein belong to their respective owners.
Please see credits for attibutions and further copyright information.

  Follow gcmap on Facebook Follow gcmap on Twitter GCmap on LinkedIn

hCard Microformat

Geo Microformat